Time;durP1;ratioP1;P1;durP2;ratioP2;P2;SDS_P1;SDS_P2;PMS_P1;PMS_P2;Temp;Humidity;BMP_temperature;BMP_pressure;BME280_temperature;BME280_humidity;BME280_pressure;Samples;Min_cycle;Max_cycle;Signal;HPM_P1;HPM_P2
2021/12/17 00:00:57;;;;;;;;;84.00;66.00;;;;;7.24;78.03;103853.66;4979694;28;45898;-73
2021/12/17 00:03:34;;;;;;;;;90.00;67.00;;;;;7.23;78.29;103859.75;4986975;28;45555;-73
2021/12/17 00:08:38;;;;;;;;;79.67;62.67;;;;;7.21;78.73;103856.19;4989270;28;45417;-73
2021/12/17 00:11:06;;;;;;;;;86.00;62.33;;;;;7.05;77.83;103831.13;4987656;28;45749;-73
2021/12/17 00:13:32;;;;;;;;;84.00;63.33;;;;;7.21;77.66;103857.94;4989545;28;45601;-73
2021/12/17 00:15:57;;;;;;;;;86.00;67.00;;;;;7.14;78.19;103851.59;4990140;28;45611;-73
2021/12/17 00:18:31;;;;;;;;;82.00;62.67;;;;;7.14;78.47;103846.31;4972194;28;47305;-73
2021/12/17 00:48:35;;;;;;;;;82.33;61.67;;;;;6.82;79.05;103806.78;4971777;28;45486;-73
2021/12/17 00:53:33;;;;;;;;;80.67;58.00;;;;;6.98;78.17;103825.66;4973083;28;45426;-73
2021/12/17 00:55:58;;;;;;;;;79.33;58.00;;;;;6.98;78.20;103831.81;4953430;28;45551;-73
2021/12/17 00:58:24;;;;;;;;;77.33;59.33;;;;;6.94;78.05;103826.38;4965664;28;45388;-73
2021/12/17 01:00:49;;;;;;;;;84.33;59.67;;;;;6.98;78.45;103830.94;4970205;28;45677;-73
2021/12/17 01:03:15;;;;;;;;;82.33;61.67;;;;;6.94;78.20;103822.03;4964196;28;45532;-72
2021/12/17 01:05:42;;;;;;;;;82.33;61.33;;;;;6.98;78.74;103831.81;4973240;28;45593;-73
2021/12/17 01:08:08;;;;;;;;;83.33;62.67;;;;;6.74;79.37;103788.97;4971307;28;45536;-72
2021/12/17 01:10:41;;;;;;;;;84.67;63.33;;;;;6.96;78.51;103832.59;4975108;28;46999;-72
2021/12/17 01:13:10;;;;;;;;;84.33;62.67;;;;;7.01;79.12;103833.66;4973386;28;45492;-71
2021/12/17 01:15:37;;;;;;;;;74.67;58.00;;;;;6.85;79.06;103803.31;4990745;28;45416;-72
2021/12/17 01:18:09;;;;;;;;;80.33;56.33;;;;;6.84;79.36;103796.28;5060701;28;45588;-72
2021/12/17 01:20:55;;;;;;;;;73.00;56.00;;;;;7.01;78.54;103823.13;5056969;27;46056;-72
2021/12/17 01:36:44;;;;;;;;;67.00;50.67;;;;;6.73;78.97;103788.03;5065138;28;45426;-72
2021/12/17 01:42:06;;;;;;;;;59.00;49.00;;;;;6.92;79.37;103820.22;5059636;27;46046;-72
2021/12/17 01:44:37;;;;;;;;;58.25;48.25;;;;;6.93;79.27;103821.97;5071820;28;45272;-72
2021/12/17 01:47:05;;;;;;;;;63.75;44.75;;;;;6.98;79.09;103838.81;5067610;28;45517;-72
2021/12/17 02:00:37;;;;;;;;;56.25;44.25;;;;;6.82;79.02;103835.72;5067972;28;45382;-72
2021/12/17 02:03:05;;;;;;;;;60.00;48.75;;;;;6.80;78.58;103836.53;5075271;28;45442;-72
2021/12/17 02:05:32;;;;;;;;;55.00;45.00;;;;;6.82;78.03;103841.00;5078216;27;45520;-72
2021/12/17 02:07:59;;;;;;;;;54.25;46.25;;;;;6.77;78.83;103829.41;5073412;28;45257;-72
2021/12/17 02:19:25;;;;;;;;;60.75;47.50;;;;;6.57;78.63;103802.47;5068471;28;46114;-73
2021/12/17 02:32:05;;;;;;;;;61.25;47.75;;;;;6.66;78.40;103824.66;5068869;27;45658;-73
2021/12/17 02:37:03;;;;;;;;;54.00;42.75;;;;;6.69;78.52;103828.28;5073450;27;45500;-73
2021/12/17 02:47:26;;;;;;;;;52.00;39.75;;;;;6.54;78.16;103806.75;5067811;28;45369;-72
2021/12/17 02:49:51;;;;;;;;;57.75;42.75;;;;;6.68;77.78;103836.16;5063322;28;45378;-73
2021/12/17 02:52:17;;;;;;;;;58.75;44.50;;;;;6.55;78.53;103819.06;5068251;28;45615;-73
2021/12/17 02:54:44;;;;;;;;;52.75;43.00;;;;;6.65;78.93;103836.94;5085760;27;48206;-73
2021/12/17 02:57:11;;;;;;;;;53.00;42.75;;;;;6.65;78.19;103826.41;5062001;28;45316;-73
2021/12/17 02:59:38;;;;;;;;;56.00;44.50;;;;;6.50;78.51;103800.50;5074867;28;45521;-72
2021/12/17 03:02:07;;;;;;;;;56.00;45.00;;;;;6.63;78.48;103822.84;5067812;28;45596;-72
2021/12/17 03:04:35;;;;;;;;;54.00;37.00;;;;;6.54;78.85;103806.75;5066985;27;46195;-72
2021/12/17 03:07:01;;;;;;;;;58.75;47.25;;;;;6.60;78.67;103806.94;5068300;28;45464;-72
2021/12/17 03:12:20;;;;;;;;;52.25;41.25;;;;;6.58;78.55;103806.00;5076098;28;45490;-73
2021/12/17 03:15:01;;;;;;;;;61.00;46.25;;;;;6.48;78.68;103796.94;5073907;28;47389;-72
2021/12/17 03:25:38;;;;;;;;;57.75;40.00;;;;;6.43;78.46;103797.63;5066778;28;45705;-72
2021/12/17 03:28:04;;;;;;;;;55.00;40.00;;;;;6.37;78.10;103787.81;5062392;28;45527;-72
2021/12/17 03:30:29;;;;;;;;;50.75;43.00;;;;;6.29;78.72;103776.13;5072063;28;46033;-72
2021/12/17 03:32:55;;;;;;;;;59.75;43.25;;;;;6.28;78.36;103777.00;5071609;28;45447;-72
2021/12/17 03:35:20;;;;;;;;;49.75;36.25;;;;;6.42;78.84;103801.13;5067661;28;45973;-72
2021/12/17 03:37:45;;;;;;;;;51.50;42.00;;;;;6.41;78.11;103807.19;5072748;28;45691;-72
2021/12/17 03:40:14;;;;;;;;;52.75;44.00;;;;;6.30;77.77;103780.56;5074533;28;45712;-73
2021/12/17 03:42:46;;;;;;;;;56.25;43.00;;;;;6.37;78.54;103791.31;5071198;28;45336;-73
2021/12/17 03:45:11;;;;;;;;;57.25;42.50;;;;;6.24;79.00;103775.13;5074052;28;45621;-73
2021/12/17 03:47:37;;;;;;;;;44.50;36.75;;;;;6.35;78.28;103798.28;5068604;28;45458;-73
2021/12/17 03:50:03;;;;;;;;;59.00;45.00;;;;;6.35;78.16;103800.00;5064170;28;47511;-73
2021/12/17 03:52:28;;;;;;;;;53.00;40.25;;;;;6.15;77.85;103765.19;5063126;28;45371;-73
2021/12/17 03:54:54;;;;;;;;;52.25;42.50;;;;;6.31;78.12;103792.88;5063367;28;46061;-73
2021/12/17 03:57:20;;;;;;;;;52.75;42.75;;;;;6.28;77.50;103791.03;5072708;27;45735;-73
2021/12/17 03:59:46;;;;;;;;;56.00;43.75;;;;;6.12;78.02;103770.34;5064955;28;45247;-72
2021/12/17 04:02:11;;;;;;;;;52.00;42.50;;;;;6.26;77.67;103791.81;5072203;27;45357;-73
2021/12/17 04:04:37;;;;;;;;;46.50;38.50;;;;;6.25;78.15;103795.31;5066226;28;45476;-72
2021/12/17 04:07:02;;;;;;;;;57.25;42.50;;;;;6.05;78.26;103757.84;5065842;28;45553;-72
2021/12/17 04:09:30;;;;;;;;;49.50;41.50;;;;;6.24;78.27;103796.16;5076951;27;45338;-73
2021/12/17 04:11:55;;;;;;;;;41.75;37.00;;;;;5.96;78.78;103753.16;5074247;27;45493;-73
2021/12/17 04:14:22;;;;;;;;;51.25;41.00;;;;;6.10;78.52;103786.06;5071676;27;46057;-73
2021/12/17 04:16:48;;;;;;;;;49.50;40.25;;;;;6.04;78.15;103767.47;5064762;27;45586;-73
2021/12/17 04:19:13;;;;;;;;;55.50;40.50;;;;;6.14;78.11;103781.78;5062541;28;45567;-72
2021/12/17 04:21:38;;;;;;;;;58.25;43.00;;;;;6.05;78.76;103769.22;5065158;28;45494;-72
2021/12/17 04:24:04;;;;;;;;;51.25;41.25;;;;;6.03;78.30;103770.94;5072377;28;46025;-72
2021/12/17 04:26:29;;;;;;;;;55.50;41.00;;;;;6.13;78.62;103782.66;5074919;28;45401;-72
2021/12/17 04:28:54;;;;;;;;;53.50;40.00;;;;;6.17;79.09;103786.25;5064328;27;45939;-72
2021/12/17 04:31:24;;;;;;;;;56.25;42.50;;;;;6.05;78.23;103773.59;5071153;28;45290;-72
2021/12/17 04:33:50;;;;;;;;;45.75;39.00;;;;;6.15;78.23;103796.75;5068049;28;46206;-72
2021/12/17 04:36:21;;;;;;;;;55.00;41.75;;;;;6.15;78.24;103786.22;5072242;28;45558;-72
2021/12/17 04:38:47;;;;;;;;;54.25;43.50;;;;;5.96;78.01;103744.38;5067980;27;45327;-72
2021/12/17 04:57:35;;;;;;;;;47.00;39.25;;;;;6.06;77.87;103783.25;5073865;28;45513;-71
2021/12/17 05:00:08;;;;;;;;;54.75;41.25;;;;;6.04;78.99;103779.72;5067152;28;50646;-71
2021/12/17 05:02:40;;;;;;;;;51.00;40.00;;;;;6.02;78.29;103782.28;5070536;27;45394;-71
2021/12/17 05:05:08;;;;;;;;;48.25;41.75;;;;;5.97;78.38;103782.97;5057827;27;46025;-71
2021/12/17 05:07:35;;;;;;;;;55.75;43.00;;;;;5.82;78.27;103754.41;5067264;28;45699;-71
2021/12/17 05:20:52;;;;;;;;;51.50;42.50;;;;;5.96;78.05;103783.81;5070885;28;45418;-70
2021/12/17 05:23:22;;;;;;;;;52.00;43.25;;;;;5.90;78.36;103782.72;5061197;28;45431;-71
2021/12/17 05:25:48;;;;;;;;;46.00;39.75;;;;;5.93;78.81;103789.88;5061361;28;45519;-71
2021/12/17 05:28:14;;;;;;;;;53.75;41.00;;;;;5.87;78.62;103782.63;5061874;28;45497;-71
2021/12/17 05:30:45;;;;;;;;;52.50;41.00;;;;;5.91;78.00;103787.16;5068689;27;45323;-71
2021/12/17 05:33:10;;;;;;;;;55.33;45.00;;;;;5.91;78.25;103791.50;5065123;28;46659;-71
2021/12/17 05:35:36;;;;;;;;;58.33;41.00;;;;;5.85;78.49;103786.03;5070139;28;45776;-73
2021/12/17 05:38:01;;;;;;;;;60.67;46.67;;;;;5.76;79.10;103780.47;5067253;27;45254;-74
2021/12/17 05:40:27;;;;;;;;;55.33;44.67;;;;;5.79;78.12;103777.94;5066981;27;45276;-74
2021/12/17 05:42:56;;;;;;;;;57.33;43.67;;;;;5.92;78.70;103798.56;5069826;28;45450;-73
2021/12/17 05:45:33;;;;;;;;;63.00;48.00;;;;;5.91;79.21;103797.69;5063013;28;46356;-73
2021/12/17 05:48:07;;;;;;;;;70.33;47.33;;;;;5.85;78.56;103786.03;5072877;28;45310;-73
2021/12/17 05:50:35;;;;;;;;;58.67;48.33;;;;;5.80;77.89;103782.38;5074113;28;45469;-74
2021/12/17 05:53:01;;;;;;;;;55.00;46.00;;;;;5.75;78.67;103782.22;5072294;27;45407;-74
2021/12/17 05:55:27;;;;;;;;;62.00;49.00;;;;;5.78;78.02;103784.94;5070804;28;46322;-74
2021/12/17 05:57:52;;;;;;;;;62.33;50.00;;;;;5.75;78.79;103795.34;5072621;27;45437;-72
2021/12/17 06:00:19;;;;;;;;;65.00;50.33;;;;;5.81;78.77;103805.19;5072402;28;45974;-71
2021/12/17 06:02:45;;;;;;;;;62.67;49.33;;;;;5.67;78.71;103773.16;5073738;27;45448;-72
2021/12/17 06:05:10;;;;;;;;;67.67;51.00;;;;;5.92;79.08;103812.59;5072152;28;45712;-72
2021/12/17 06:07:36;;;;;;;;;65.33;49.33;;;;;5.80;78.74;103788.53;5088075;27;45927;-72
2021/12/17 06:10:04;;;;;;;;;68.00;50.00;;;;;5.97;78.92;103817.13;5071711;28;45562;-72
2021/12/17 06:12:29;;;;;;;;;59.00;47.00;;;;;6.01;79.75;103824.31;5083334;27;45587;-72
2021/12/17 06:14:55;;;;;;;;;59.33;48.00;;;;;5.88;79.39;103796.66;5072062;27;45957;-70
2021/12/17 06:17:20;;;;;;;;;68.67;48.33;;;;;5.65;80.00;103759.09;5071826;28;45508;-72
2021/12/17 06:19:46;;;;;;;;;65.33;48.00;;;;;6.07;79.06;103812.25;5071151;28;46018;-73
2021/12/17 06:22:12;;;;;;;;;64.00;50.67;;;;;6.11;79.72;103826.41;5073976;28;45299;-73
2021/12/17 06:24:37;;;;;;;;;65.00;49.00;;;;;6.11;79.33;103821.13;5075530;28;46060;-72
2021/12/17 06:27:03;;;;;;;;;73.33;50.67;;;;;6.06;79.24;103806.94;5073649;28;45993;-72
2021/12/17 06:29:29;;;;;;;;;70.67;51.33;;;;;6.09;79.76;103809.69;5071905;27;45397;-72
2021/12/17 06:31:54;;;;;;;;;64.33;49.33;;;;;6.14;79.42;103816.88;5068955;28;45500;-72
2021/12/17 06:34:19;;;;;;;;;39.33;37.67;;;;;5.91;79.56;103776.66;5066698;28;45510;-72
2021/12/17 06:36:45;;;;;;;;;62.33;47.00;;;;;6.17;79.11;103829.22;5075110;28;45485;-71
2021/12/17 06:39:10;;;;;;;;;67.00;44.33;;;;;5.72;79.45;103749.69;5075803;27;45391;-72
2021/12/17 06:41:37;;;;;;;;;57.00;45.67;;;;;6.15;78.42;103833.56;5077047;27;45688;-71
2021/12/17 06:44:03;;;;;;;;;60.67;46.00;;;;;6.12;77.87;103843.97;5075072;27;46656;-71
2021/12/17 06:46:36;;;;;;;;;54.75;42.25;;;;;5.99;78.56;103833.88;5074984;28;45462;-71
2021/12/17 06:49:20;;;;;;;;;64.00;44.33;;;;;5.74;78.39;103801.47;5074919;28;45383;-72
2021/12/17 06:54:54;;;;;;;;;47.00;39.33;;;;;6.04;78.99;103866.47;5061477;28;45423;-71
2021/12/17 07:00:07;;;;;;;;;59.75;42.00;;;;;5.90;79.49;103835.31;5076716;27;45342;-71
2021/12/17 07:10:45;;;;;;;;;50.50;40.25;;;;;6.07;79.37;103856.06;5074032;27;45581;-71
2021/12/17 07:34:09;;;;;;;;;54.50;40.25;;;;;6.13;81.11;103819.47;5074189;28;45398;-71
2021/12/17 07:39:18;;;;;;;;;44.75;35.00;;;;;6.16;80.42;103810.78;5058965;28;45637;-72
2021/12/17 07:41:44;;;;;;;;;41.00;34.50;;;;;6.13;80.61;103807.19;5076862;27;45317;-72
2021/12/17 07:44:10;;;;;;;;;38.50;29.75;;;;;6.37;79.89;103845.66;5073588;28;45234;-71
2021/12/17 07:46:35;;;;;;;;;41.75;28.00;;;;;6.39;80.40;103854.53;5072462;28;45984;-71
2021/12/17 07:49:00;;;;;;;;;25.50;25.00;;;;;6.51;80.59;103859.28;5074192;28;45227;-71
2021/12/17 07:51:26;;;;;;;;;29.50;26.50;;;;;6.55;81.64;103863.78;5074814;28;45442;-71
2021/12/17 07:53:54;;;;;;;;;26.25;22.00;;;;;6.58;81.22;103863.88;5075208;27;45292;-71
2021/12/17 07:56:27;;;;;;;;;31.00;24.25;;;;;6.61;80.63;103856.09;5075238;28;45735;-71
2021/12/17 07:58:52;;;;;;;;;30.75;24.50;;;;;6.26;80.45;103802.34;5074049;27;45484;-71
2021/12/17 08:01:18;;;;;;;;;27.50;19.50;;;;;6.57;80.90;103855.09;5073784;28;45334;-71
2021/12/17 08:03:44;;;;;;;;;27.50;26.25;;;;;6.53;80.62;103841.78;5074586;28;45409;-71
2021/12/17 08:06:10;;;;;;;;;29.25;24.75;;;;;6.67;80.74;103872.06;5073602;27;46452;-71
2021/12/17 08:08:36;;;;;;;;;30.00;24.00;;;;;6.69;80.51;103873.03;5076103;27;45349;-71
2021/12/17 08:11:02;;;;;;;;;37.50;25.00;;;;;6.61;81.20;103858.72;5078195;27;45691;-71
2021/12/17 08:13:31;;;;;;;;;35.75;31.25;;;;;6.72;81.33;103862.59;5074091;27;45281;-71
2021/12/17 08:19:09;;;;;;;;;38.25;32.75;;;;;6.74;80.76;103862.66;5072396;28;45470;-71
2021/12/17 08:23:25;;;;;;;;;30.00;25.75;;;;;6.41;80.87;103791.41;5059339;28;45460;-71
2021/12/17 08:25:10;;;;;;;;;29.00;27.75;;;;;6.69;80.77;103837.91;5061201;28;45602;-72
2021/12/17 08:29:55;;;;;;;;;43.75;29.75;;;;;6.89;80.60;103865.75;5074701;28;45421;-72
2021/12/17 08:32:21;;;;;;;;;42.75;32.75;;;;;6.90;80.82;103864.03;5074947;28;45367;-73
2021/12/17 08:34:46;;;;;;;;;39.50;33.50;;;;;6.88;80.89;103863.06;5088896;27;47758;-72
2021/12/17 08:37:11;;;;;;;;;45.75;35.75;;;;;6.85;80.86;103855.06;5073255;28;45385;-72
2021/12/17 08:39:37;;;;;;;;;45.25;32.75;;;;;6.98;81.27;103868.69;5074399;27;45537;-73
2021/12/17 08:42:04;;;;;;;;;51.25;38.25;;;;;7.03;81.39;103876.72;5073565;27;45365;-72
2021/12/17 08:44:29;;;;;;;;;51.50;34.75;;;;;7.06;81.07;103882.09;5074903;27;45390;-72
2021/12/17 08:46:55;;;;;;;;;45.25;38.25;;;;;7.07;80.54;103875.06;5073316;28;47626;-72
2021/12/17 08:49:21;;;;;;;;;45.75;38.00;;;;;6.92;81.31;103854.44;5073167;28;45391;-72
2021/12/17 08:51:46;;;;;;;;;47.50;38.25;;;;;7.02;80.84;103864.38;5073648;28;45480;-72
2021/12/17 08:54:12;;;;;;;;;49.50;39.25;;;;;7.07;80.71;103880.34;5057475;28;45546;-72
2021/12/17 08:56:43;;;;;;;;;45.25;36.00;;;;;7.08;81.10;103879.47;5075119;27;45218;-72
2021/12/17 08:59:09;;;;;;;;;53.75;39.50;;;;;7.11;81.27;103887.47;5073396;28;45532;-72
2021/12/17 09:01:35;;;;;;;;;55.25;37.50;;;;;7.11;81.38;103877.84;5073351;27;45441;-72
2021/12/17 09:04:02;;;;;;;;;54.00;39.00;;;;;7.07;80.79;103875.97;5073685;27;45472;-72
2021/12/17 09:06:28;;;;;;;;;58.50;41.75;;;;;7.11;81.27;103880.47;5073440;28;45301;-72
2021/12/17 09:08:56;;;;;;;;;53.00;41.25;;;;;7.13;80.53;103883.16;5073855;27;45621;-72
2021/12/17 09:11:23;;;;;;;;;53.75;41.75;;;;;7.00;80.71;103863.44;5070718;28;45494;-72
2021/12/17 09:13:51;;;;;;;;;52.25;36.00;;;;;7.16;80.89;103883.25;5070190;28;45206;-72
2021/12/17 09:16:20;;;;;;;;;53.00;37.00;;;;;7.17;81.21;103879.75;5072702;28;46667;-73
2021/12/17 09:18:49;;;;;;;;;48.25;37.50;;;;;7.31;81.59;103899.50;5072918;28;45497;-72
2021/12/17 09:21:16;;;;;;;;;56.50;37.75;;;;;7.24;81.33;103880.00;5055590;28;45395;-72
2021/12/17 09:23:42;;;;;;;;;54.75;40.25;;;;;7.37;81.42;103899.69;5075237;27;45426;-72
2021/12/17 09:26:12;;;;;;;;;45.75;35.25;;;;;7.39;81.47;103902.38;5072537;28;45476;-72
2021/12/17 09:28:38;;;;;;;;;46.75;39.00;;;;;7.41;81.15;103903.28;5072663;28;45509;-72
2021/12/17 09:31:05;;;;;;;;;42.25;36.50;;;;;7.45;81.77;103907.84;5072772;28;45465;-72
2021/12/17 09:33:32;;;;;;;;;49.50;34.50;;;;;7.31;81.51;103878.44;5084507;27;45481;-72
2021/12/17 09:35:57;;;;;;;;;49.25;36.75;;;;;7.45;81.97;103899.94;5073434;27;45659;-72
2021/12/17 09:38:23;;;;;;;;;67.75;42.75;;;;;7.48;81.08;103900.91;5072677;27;45228;-72
2021/12/17 09:40:50;;;;;;;;;53.00;35.25;;;;;7.54;81.75;103913.38;5072366;28;45429;-72
2021/12/17 09:43:16;;;;;;;;;47.75;37.75;;;;;7.56;81.69;103918.66;5072799;28;45429;-73
2021/12/17 09:45:42;;;;;;;;;50.00;38.00;;;;;7.58;81.52;103927.53;5072389;28;45404;-73
2021/12/17 09:48:07;;;;;;;;;42.50;38.00;;;;;7.38;81.81;103888.31;5072426;28;45434;-73
2021/12/17 09:50:33;;;;;;;;;55.75;41.25;;;;;7.63;81.64;103926.81;5074619;27;45432;-73
2021/12/17 09:52:59;;;;;;;;;48.50;38.75;;;;;7.62;80.92;103916.22;5072444;28;45726;-73
2021/12/17 09:55:25;;;;;;;;;50.00;34.50;;;;;7.69;81.65;103921.72;5089226;27;48049;-73
2021/12/17 09:57:51;;;;;;;;;45.25;36.50;;;;;7.60;81.67;103910.91;5076012;28;45357;-73
2021/12/17 10:00:20;;;;;;;;;51.25;38.50;;;;;7.62;81.37;103922.41;5075723;28;45409;-73
2021/12/17 10:02:48;;;;;;;;;49.00;38.00;;;;;7.73;80.79;103943.78;5077508;27;45326;-73
2021/12/17 10:05:18;;;;;;;;;46.50;36.50;;;;;7.67;81.50;103933.94;5077405;28;46006;-73
2021/12/17 10:07:44;;;;;;;;;53.75;39.00;;;;;7.72;81.78;103940.25;5076218;28;45313;-73
2021/12/17 10:10:12;;;;;;;;;46.00;35.75;;;;;7.44;81.31;103885.84;5075641;28;45563;-73
2021/12/17 10:12:40;;;;;;;;;53.50;37.75;;;;;7.69;81.17;103912.91;5074855;27;45522;-73
2021/12/17 10:15:17;;;;;;;;;48.75;37.25;;;;;7.69;81.71;103916.44;5075546;27;46052;-73
2021/12/17 10:17:54;;;;;;;;;55.00;41.50;;;;;7.83;81.61;103937.03;5077747;28;45265;-73
2021/12/17 10:20:21;;;;;;;;;54.00;37.25;;;;;7.83;81.77;103930.00;5077300;28;45363;-73
2021/12/17 10:22:55;;;;;;;;;35.75;34.25;;;;;7.87;81.63;103931.00;5074117;28;45516;-73
2021/12/17 10:25:22;;;;;;;;;51.50;37.00;;;;;7.69;82.09;103895.34;5075286;27;46649;-73
2021/12/17 10:27:47;;;;;;;;;48.75;37.50;;;;;7.92;81.59;103926.75;5073616;28;45513;-73
2021/12/17 10:30:18;;;;;;;;;49.50;38.50;;;;;7.93;81.96;103926.78;5076050;28;45532;-74
2021/12/17 10:32:47;;;;;;;;;40.25;31.25;;;;;7.91;81.25;103924.94;5073490;28;45333;-73
2021/12/17 10:35:20;;;;;;;;;55.00;38.00;;;;;7.86;81.14;103906.38;5074466;28;45334;-73
2021/12/17 10:37:52;;;;;;;;;44.25;36.25;;;;;7.99;81.31;103926.03;5075006;28;45503;-73
2021/12/17 10:40:28;;;;;;;;;49.75;37.00;;;;;8.02;81.33;103922.59;5075285;28;45370;-73
2021/12/17 10:46:04;;;;;;;;;57.50;41.25;;;;;8.03;81.59;103906.84;5075019;28;45354;-73
2021/12/17 10:51:18;;;;;;;;;52.25;40.75;;;;;8.06;81.07;103909.56;5075601;27;45527;-72
2021/12/17 10:54:03;;;;;;;;;53.50;38.25;;;;;8.08;80.97;103902.56;5077304;28;45324;-72
2021/12/17 10:56:37;;;;;;;;;49.25;35.00;;;;;7.93;81.24;103884.56;5075188;28;45541;-73
2021/12/17 10:59:14;;;;;;;;;53.50;38.50;;;;;8.04;81.23;103905.97;5074878;28;45426;-72
2021/12/17 11:01:54;;;;;;;;;47.75;36.25;;;;;8.08;81.40;103904.31;5075045;28;45549;-72
2021/12/17 11:04:25;;;;;;;;;50.25;37.00;;;;;8.07;81.36;103900.78;5075228;27;45599;-72
2021/12/17 11:06:55;;;;;;;;;47.75;36.25;;;;;7.97;81.60;103875.00;5074284;28;46100;-72
2021/12/17 11:09:38;;;;;;;;;44.75;37.00;;;;;8.13;81.69;103906.22;5075025;28;45359;-72
2021/12/17 11:12:35;;;;;;;;;44.00;34.25;;;;;8.12;81.63;103899.16;5073694;28;45322;-72
2021/12/17 11:15:33;;;;;;;;;54.50;35.25;;;;;8.14;81.85;103896.53;5073487;28;45408;-72
2021/12/17 11:18:04;;;;;;;;;50.00;37.50;;;;;7.81;81.22;103823.59;5051514;28;45612;-73
2021/12/17 11:20:36;;;;;;;;;49.00;39.25;;;;;8.16;81.21;103895.75;5037736;28;45449;-73
2021/12/17 11:23:09;;;;;;;;;47.75;36.00;;;;;8.14;80.88;103886.88;5053566;28;47796;-73
2021/12/17 11:25:37;;;;;;;;;50.25;36.50;;;;;8.12;81.61;103890.34;5035342;28;45414;-72
2021/12/17 11:28:04;;;;;;;;;42.25;32.50;;;;;8.03;81.57;103869.91;5052196;28;46101;-73
2021/12/17 11:30:32;;;;;;;;;45.75;37.50;;;;;8.09;81.35;103880.63;5052969;28;45474;-72
2021/12/17 11:33:01;;;;;;;;;45.25;33.75;;;;;8.15;81.40;103883.41;5053627;28;45406;-73
2021/12/17 11:35:28;;;;;;;;;43.75;35.50;;;;;8.04;81.35;103858.50;5052039;28;45505;-72
2021/12/17 11:38:00;;;;;;;;;47.25;36.50;;;;;8.19;81.26;103885.25;5036253;28;45478;-72
2021/12/17 11:40:32;;;;;;;;;48.75;35.25;;;;;8.03;81.32;103851.44;5052607;28;45555;-71
2021/12/17 11:43:16;;;;;;;;;40.75;34.00;;;;;8.19;81.57;103874.72;5052956;28;45532;-72
2021/12/17 11:45:44;;;;;;;;;45.25;34.25;;;;;8.22;80.93;103873.91;5052681;28;45569;-72
2021/12/17 11:48:19;;;;;;;;;45.50;32.00;;;;;8.24;81.16;103874.84;5053135;28;46125;-72
2021/12/17 11:51:11;;;;;;;;;52.25;34.75;;;;;8.26;81.66;103870.47;5053123;28;45421;-72
2021/12/17 11:53:52;;;;;;;;;42.75;35.75;;;;;8.18;81.34;103850.94;5064241;28;45333;-73
2021/12/17 11:56:54;;;;;;;;;37.25;27.50;;;;;8.30;81.51;103867.06;5074824;28;45581;-73
2021/12/17 11:59:26;;;;;;;;;42.50;31.00;;;;;8.30;81.65;103867.06;5072852;28;46177;-71
2021/12/17 12:02:01;;;;;;;;;40.25;32.25;;;;;8.33;81.94;103853.97;5072624;28;45284;-71
2021/12/17 12:04:38;;;;;;;;;47.00;32.75;;;;;8.37;81.30;103853.16;5073239;28;45383;-72
2021/12/17 12:07:36;;;;;;;;;38.00;32.75;;;;;8.43;81.61;103846.28;5055303;28;45573;-73
2021/12/17 12:10:04;;;;;;;;;37.00;33.50;;;;;8.44;81.54;103843.69;5071732;28;46063;-71
2021/12/17 12:12:40;;;;;;;;;32.25;25.75;;;;;8.48;81.44;103847.31;5075283;28;45491;-72
2021/12/17 12:15:37;;;;;;;;;35.75;24.50;;;;;8.48;81.21;103842.91;5076977;28;45488;-72
2021/12/17 12:18:15;;;;;;;;;50.25;31.50;;;;;8.51;81.51;103835.06;5062129;28;45443;-72
2021/12/17 12:23:15;;;;;;;;;39.50;24.25;;;;;8.52;81.35;103818.38;5074073;28;45346;-71
2021/12/17 12:25:41;;;;;;;;;47.25;35.00;;;;;8.63;81.52;103834.47;5068815;28;47277;-72
2021/12/17 12:28:06;;;;;;;;;51.25;37.25;;;;;8.62;81.57;103824.78;5051038;28;45656;-72
2021/12/17 12:30:41;;;;;;;;;45.00;27.75;;;;;8.42;82.24;103787.34;5070004;28;45514;-72
2021/12/17 12:33:09;;;;;;;;;42.50;36.25;;;;;8.71;81.27;103838.19;5071624;28;45446;-72
2021/12/17 12:35:35;;;;;;;;;54.25;33.50;;;;;8.72;81.73;103829.41;5076089;27;45456;-72
2021/12/17 12:38:15;;;;;;;;;46.50;34.25;;;;;8.73;81.71;103817.06;5073160;28;45378;-72
2021/12/17 12:40:45;;;;;;;;;48.25;34.00;;;;;8.71;81.71;103817.06;5073361;28;45941;-72
2021/12/17 12:43:30;;;;;;;;;51.75;35.50;;;;;8.78;81.94;103826.00;5073078;28;45366;-72
2021/12/17 12:45:56;;;;;;;;;47.25;28.25;;;;;8.77;81.48;103817.19;5073368;27;45475;-72
2021/12/17 12:48:36;;;;;;;;;50.25;33.75;;;;;8.73;81.97;103803.88;5073414;28;45228;-72
2021/12/17 12:51:23;;;;;;;;;41.00;30.00;;;;;8.86;81.26;103824.44;5072575;27;45362;-72
2021/12/17 12:54:08;;;;;;;;;40.75;31.25;;;;;8.84;81.41;103819.09;5071627;28;45371;-72
2021/12/17 12:56:38;;;;;;;;;43.50;34.00;;;;;8.68;81.86;103777.38;5075448;27;45499;-71
2021/12/17 12:59:06;;;;;;;;;52.25;34.25;;;;;8.66;81.46;103772.94;5072945;28;45464;-71
2021/12/17 13:01:32;;;;;;;;;44.75;31.75;;;;;8.73;81.71;103782.75;5072781;28;46348;-71
2021/12/17 13:03:57;;;;;;;;;48.75;34.75;;;;;8.86;81.80;103800.66;5072650;28;45580;-71
2021/12/17 13:06:23;;;;;;;;;47.75;32.50;;;;;8.91;82.16;103796.34;5073079;28;45710;-71
2021/12/17 13:08:56;;;;;;;;;56.00;38.00;;;;;9.01;81.80;103810.66;5074183;27;45290;-71
2021/12/17 13:11:23;;;;;;;;;51.00;34.25;;;;;9.03;81.07;103809.84;5074480;28;46505;-71
2021/12/17 13:13:54;;;;;;;;;42.75;32.50;;;;;9.06;81.51;103811.66;5078766;27;45459;-71
2021/12/17 13:16:34;;;;;;;;;49.50;34.50;;;;;8.94;81.93;103793.81;5072992;27;45572;-71
2021/12/17 13:21:58;;;;;;;;;44.00;35.50;;;;;9.10;81.62;103813.50;5072348;28;45425;-71
2021/12/17 13:24:36;;;;;;;;;53.00;34.00;;;;;8.79;81.42;103757.34;5073955;27;45449;-71
2021/12/17 13:27:10;;;;;;;;;47.00;36.25;;;;;8.81;81.56;103749.47;5072645;27;45287;-71
2021/12/17 13:29:38;;;;;;;;;58.75;41.50;;;;;8.96;81.01;103773.56;5078709;27;45576;-71
2021/12/17 13:32:06;;;;;;;;;59.00;38.00;;;;;9.18;81.59;103808.38;5077577;28;45568;-71
2021/12/17 13:34:36;;;;;;;;;53.25;38.25;;;;;9.19;81.42;103797.81;5079022;28;45687;-71
2021/12/17 13:37:06;;;;;;;;;52.00;37.75;;;;;9.23;81.55;103804.06;5079420;28;45370;-71
2021/12/17 13:40:00;;;;;;;;;58.50;40.50;;;;;9.13;81.82;103776.56;5079979;28;45501;-71
2021/12/17 13:42:30;;;;;;;;;57.25;35.25;;;;;9.25;80.84;103794.41;5064947;28;46187;-73
2021/12/17 13:45:01;;;;;;;;;58.50;43.00;;;;;9.26;81.34;103799.72;5079795;27;45647;-71
2021/12/17 13:47:31;;;;;;;;;51.50;37.00;;;;;9.29;81.44;103793.59;5079449;28;45371;-71
2021/12/17 13:50:02;;;;;;;;;50.75;38.00;;;;;9.24;81.41;103780.31;5078910;28;45483;-71
2021/12/17 13:52:29;;;;;;;;;53.75;40.25;;;;;9.22;80.80;103770.56;5079353;28;46025;-71
2021/12/17 13:54:58;;;;;;;;;50.75;36.25;;;;;9.33;81.01;103793.72;5078048;28;45603;-72
2021/12/17 13:57:26;;;;;;;;;56.25;41.75;;;;;9.24;80.94;103766.22;5079155;28;45493;-72
2021/12/17 14:00:00;;;;;;;;;53.75;40.50;;;;;9.35;80.78;103776.97;5080361;28;45381;-72
2021/12/17 14:02:25;;;;;;;;;50.00;37.25;;;;;9.18;81.25;103759.06;5079253;28;45405;-71
2021/12/17 14:05:11;;;;;;;;;46.00;32.50;;;;;9.33;80.79;103784.91;5078537;28;45326;-71
2021/12/17 14:07:38;;;;;;;;;36.25;29.50;;;;;9.36;81.25;103776.13;5078619;27;45478;-72
2021/12/17 14:10:11;;;;;;;;;44.50;34.25;;;;;9.37;80.64;103780.56;5092901;27;47300;-72
2021/12/17 14:12:40;;;;;;;;;36.75;33.25;;;;;9.37;80.92;103792.00;5078856;27;45453;-71
2021/12/17 14:15:07;;;;;;;;;52.00;37.00;;;;;8.80;80.97;103694.91;5078795;27;45509;-71
2021/12/17 14:17:35;;;;;;;;;35.50;28.00;;;;;9.17;80.26;103748.44;5081150;27;45451;-71
2021/12/17 14:20:06;;;;;;;;;40.50;31.75;;;;;9.37;80.42;103785.84;5078252;28;45446;-72
2021/12/17 14:22:34;;;;;;;;;46.00;32.75;;;;;9.36;80.44;103787.59;5079090;28;46477;-72
2021/12/17 14:25:00;;;;;;;;;37.25;30.50;;;;;9.35;80.44;103777.88;5078595;28;45486;-72
2021/12/17 14:27:42;;;;;;;;;46.00;28.25;;;;;9.31;80.45;103779.56;5078679;27;45497;-72
2021/12/17 14:30:08;;;;;;;;;42.00;29.75;;;;;9.21;80.03;103745.91;5079126;27;45448;-72